sensor_id;sensor_type;location;lat;lon;timestamp;P1;durP1;ratioP1;P2;durP2;ratioP2
21647;SDS011;10985;54.182;7.890;2023-05-16T00:00:57;25.98;;;4.00;;
21647;SDS011;10985;54.182;7.890;2023-05-16T00:03:23;32.22;;;4.72;;
21647;SDS011;10985;54.182;7.890;2023-05-16T00:05:49;22.40;;;4.57;;
21647;SDS011;10985;54.182;7.890;2023-05-16T00:08:15;19.65;;;3.70;;
21647;SDS011;10985;54.182;7.890;2023-05-16T00:10:41;21.98;;;4.60;;
21647;SDS011;10985;54.182;7.890;2023-05-16T00:13:07;36.05;;;4.80;;
21647;SDS011;10985;54.182;7.890;2023-05-16T00:15:34;22.13;;;3.63;;
21647;SDS011;10985;54.182;7.890;2023-05-16T00:17:59;20.00;;;4.45;;
21647;SDS011;10985;54.182;7.890;2023-05-16T00:20:25;26.52;;;4.20;;
21647;SDS011;10985;54.182;7.890;2023-05-16T00:22:51;25.27;;;4.53;;
21647;SDS011;10985;54.182;7.890;2023-05-16T00:25:17;32.95;;;5.68;;
21647;SDS011;10985;54.182;7.890;2023-05-16T00:27:43;22.48;;;4.68;;
21647;SDS011;10985;54.182;7.890;2023-05-16T00:30:08;17.85;;;3.47;;
21647;SDS011;10985;54.182;7.890;2023-05-16T00:32:34;24.60;;;3.95;;
21647;SDS011;10985;54.182;7.890;2023-05-16T00:35:00;27.83;;;5.13;;
21647;SDS011;10985;54.182;7.890;2023-05-16T00:37:26;21.05;;;3.88;;
21647;SDS011;10985;54.182;7.890;2023-05-16T00:39:52;16.13;;;3.80;;
21647;SDS011;10985;54.182;7.890;2023-05-16T00:42:18;20.52;;;4.45;;
21647;SDS011;10985;54.182;7.890;2023-05-16T00:44:44;20.20;;;4.03;;
21647;SDS011;10985;54.182;7.890;2023-05-16T00:47:10;24.10;;;4.40;;
21647;SDS011;10985;54.182;7.890;2023-05-16T00:49:36;26.92;;;4.00;;
21647;SDS011;10985;54.182;7.890;2023-05-16T00:52:02;18.33;;;3.88;;
21647;SDS011;10985;54.182;7.890;2023-05-16T00:54:28;19.98;;;3.65;;
21647;SDS011;10985;54.182;7.890;2023-05-16T00:56:54;25.45;;;4.03;;
21647;SDS011;10985;54.182;7.890;2023-05-16T00:59:23;15.88;;;3.92;;
21647;SDS011;10985;54.182;7.890;2023-05-16T01:01:49;23.13;;;3.67;;
21647;SDS011;10985;54.182;7.890;2023-05-16T01:04:15;16.42;;;4.05;;
21647;SDS011;10985;54.182;7.890;2023-05-16T01:06:41;15.55;;;4.15;;
21647;SDS011;10985;54.182;7.890;2023-05-16T01:09:07;16.33;;;3.83;;
21647;SDS011;10985;54.182;7.890;2023-05-16T01:20:08;25.25;;;4.57;;
21647;SDS011;10985;54.182;7.890;2023-05-16T01:27:53;16.45;;;2.90;;
21647;SDS011;10985;54.182;7.890;2023-05-16T01:30:20;19.63;;;3.53;;
21647;SDS011;10985;54.182;7.890;2023-05-16T01:32:46;23.05;;;4.00;;
21647;SDS011;10985;54.182;7.890;2023-05-16T01:35:12;18.27;;;3.92;;
21647;SDS011;10985;54.182;7.890;2023-05-16T01:40:29;23.38;;;4.50;;
21647;SDS011;10985;54.182;7.890;2023-05-16T01:43:16;14.52;;;3.55;;
21647;SDS011;10985;54.182;7.890;2023-05-16T01:45:49;21.33;;;3.22;;
21647;SDS011;10985;54.182;7.890;2023-05-16T01:48:32;19.05;;;4.03;;
21647;SDS011;10985;54.182;7.890;2023-05-16T01:51:03;19.73;;;4.13;;
21647;SDS011;10985;54.182;7.890;2023-05-16T01:53:32;18.95;;;4.18;;
21647;SDS011;10985;54.182;7.890;2023-05-16T01:56:03;18.38;;;3.45;;
21647;SDS011;10985;54.182;7.890;2023-05-16T01:58:32;16.77;;;3.10;;
21647;SDS011;10985;54.182;7.890;2023-05-16T02:01:00;19.35;;;3.78;;
21647;SDS011;10985;54.182;7.890;2023-05-16T02:03:28;20.10;;;3.75;;
21647;SDS011;10985;54.182;7.890;2023-05-16T02:05:55;12.68;;;3.67;;
21647;SDS011;10985;54.182;7.890;2023-05-16T02:08:21;23.77;;;3.78;;
21647;SDS011;10985;54.182;7.890;2023-05-16T02:10:47;24.45;;;4.40;;
21647;SDS011;10985;54.182;7.890;2023-05-16T02:13:12;16.05;;;3.58;;
21647;SDS011;10985;54.182;7.890;2023-05-16T02:15:38;19.67;;;3.28;;
21647;SDS011;10985;54.182;7.890;2023-05-16T02:18:03;23.77;;;4.30;;
21647;SDS011;10985;54.182;7.890;2023-05-16T02:20:29;17.42;;;3.78;;
21647;SDS011;10985;54.182;7.890;2023-05-16T02:22:55;20.58;;;4.10;;
21647;SDS011;10985;54.182;7.890;2023-05-16T02:25:20;26.40;;;4.82;;
21647;SDS011;10985;54.182;7.890;2023-05-16T02:27:46;18.85;;;3.92;;
21647;SDS011;10985;54.182;7.890;2023-05-16T02:30:13;19.63;;;3.90;;
21647;SDS011;10985;54.182;7.890;2023-05-16T02:32:38;27.67;;;4.75;;
21647;SDS011;10985;54.182;7.890;2023-05-16T02:35:05;21.73;;;4.22;;
21647;SDS011;10985;54.182;7.890;2023-05-16T02:37:31;15.88;;;3.28;;
21647;SDS011;10985;54.182;7.890;2023-05-16T02:39:57;20.15;;;4.15;;
21647;SDS011;10985;54.182;7.890;2023-05-16T02:42:24;17.13;;;4.65;;
21647;SDS011;10985;54.182;7.890;2023-05-16T02:44:51;13.68;;;3.60;;
21647;SDS011;10985;54.182;7.890;2023-05-16T02:47:16;16.17;;;3.67;;
21647;SDS011;10985;54.182;7.890;2023-05-16T02:49:42;22.33;;;3.65;;
21647;SDS011;10985;54.182;7.890;2023-05-16T02:52:07;13.38;;;2.97;;
21647;SDS011;10985;54.182;7.890;2023-05-16T02:54:33;16.67;;;3.75;;
21647;SDS011;10985;54.182;7.890;2023-05-16T02:56:59;20.00;;;4.18;;
21647;SDS011;10985;54.182;7.890;2023-05-16T02:59:24;19.25;;;3.75;;
21647;SDS011;10985;54.182;7.890;2023-05-16T03:01:50;21.05;;;4.05;;
21647;SDS011;10985;54.182;7.890;2023-05-16T03:04:16;22.98;;;4.13;;
21647;SDS011;10985;54.182;7.890;2023-05-16T03:06:41;24.00;;;4.13;;
21647;SDS011;10985;54.182;7.890;2023-05-16T03:09:07;25.08;;;4.65;;
21647;SDS011;10985;54.182;7.890;2023-05-16T03:11:33;12.70;;;3.72;;
21647;SDS011;10985;54.182;7.890;2023-05-16T03:13:59;24.23;;;3.85;;
21647;SDS011;10985;54.182;7.890;2023-05-16T03:16:25;17.02;;;3.70;;
21647;SDS011;10985;54.182;7.890;2023-05-16T03:18:50;15.57;;;3.83;;
21647;SDS011;10985;54.182;7.890;2023-05-16T03:21:16;14.98;;;3.80;;
21647;SDS011;10985;54.182;7.890;2023-05-16T03:23:41;23.08;;;3.72;;
21647;SDS011;10985;54.182;7.890;2023-05-16T03:26:07;25.98;;;3.67;;
21647;SDS011;10985;54.182;7.890;2023-05-16T03:28:33;19.27;;;3.35;;
21647;SDS011;10985;54.182;7.890;2023-05-16T03:30:58;14.25;;;3.03;;
21647;SDS011;10985;54.182;7.890;2023-05-16T03:33:24;18.77;;;3.13;;
21647;SDS011;10985;54.182;7.890;2023-05-16T03:35:50;14.75;;;3.67;;
21647;SDS011;10985;54.182;7.890;2023-05-16T03:38:16;19.60;;;4.13;;
21647;SDS011;10985;54.182;7.890;2023-05-16T03:40:42;28.13;;;4.40;;
21647;SDS011;10985;54.182;7.890;2023-05-16T03:43:07;19.90;;;3.55;;
21647;SDS011;10985;54.182;7.890;2023-05-16T03:45:33;17.25;;;3.50;;
21647;SDS011;10985;54.182;7.890;2023-05-16T03:47:58;17.58;;;3.35;;
21647;SDS011;10985;54.182;7.890;2023-05-16T03:50:24;21.58;;;3.20;;
21647;SDS011;10985;54.182;7.890;2023-05-16T03:52:50;19.60;;;4.40;;
21647;SDS011;10985;54.182;7.890;2023-05-16T03:55:17;17.30;;;3.88;;
21647;SDS011;10985;54.182;7.890;2023-05-16T03:57:43;17.08;;;3.58;;
21647;SDS011;10985;54.182;7.890;2023-05-16T04:00:09;12.50;;;3.58;;
21647;SDS011;10985;54.182;7.890;2023-05-16T04:02:36;15.75;;;3.40;;
21647;SDS011;10985;54.182;7.890;2023-05-16T04:05:04;16.95;;;3.53;;
21647;SDS011;10985;54.182;7.890;2023-05-16T04:07:34;20.02;;;3.92;;
21647;SDS011;10985;54.182;7.890;2023-05-16T04:09:59;18.05;;;3.88;;
21647;SDS011;10985;54.182;7.890;2023-05-16T04:12:25;21.33;;;4.10;;
21647;SDS011;10985;54.182;7.890;2023-05-16T04:14:51;21.45;;;3.22;;
21647;SDS011;10985;54.182;7.890;2023-05-16T04:17:16;21.98;;;3.75;;
21647;SDS011;10985;54.182;7.890;2023-05-16T04:19:42;13.88;;;3.40;;
21647;SDS011;10985;54.182;7.890;2023-05-16T04:22:07;10.75;;;2.83;;
21647;SDS011;10985;54.182;7.890;2023-05-16T04:24:33;16.73;;;3.45;;
21647;SDS011;10985;54.182;7.890;2023-05-16T04:26:58;14.63;;;3.35;;
21647;SDS011;10985;54.182;7.890;2023-05-16T04:29:24;13.50;;;3.58;;
21647;SDS011;10985;54.182;7.890;2023-05-16T04:31:50;20.15;;;3.63;;
21647;SDS011;10985;54.182;7.890;2023-05-16T04:34:15;15.10;;;2.85;;
21647;SDS011;10985;54.182;7.890;2023-05-16T04:36:41;18.23;;;3.70;;
21647;SDS011;10985;54.182;7.890;2023-05-16T04:39:07;19.08;;;3.22;;
21647;SDS011;10985;54.182;7.890;2023-05-16T04:41:33;22.38;;;4.05;;
21647;SDS011;10985;54.182;7.890;2023-05-16T04:44:00;12.52;;;3.83;;
21647;SDS011;10985;54.182;7.890;2023-05-16T04:46:29;21.23;;;3.80;;
21647;SDS011;10985;54.182;7.890;2023-05-16T04:48:55;12.98;;;3.35;;
21647;SDS011;10985;54.182;7.890;2023-05-16T04:51:20;21.00;;;3.90;;
21647;SDS011;10985;54.182;7.890;2023-05-16T04:53:46;23.23;;;4.60;;
21647;SDS011;10985;54.182;7.890;2023-05-16T04:56:12;12.80;;;3.35;;
21647;SDS011;10985;54.182;7.890;2023-05-16T04:58:37;23.08;;;3.13;;
21647;SDS011;10985;54.182;7.890;2023-05-16T05:01:03;11.48;;;2.60;;
21647;SDS011;10985;54.182;7.890;2023-05-16T05:03:28;17.80;;;2.90;;
21647;SDS011;10985;54.182;7.890;2023-05-16T05:05:54;15.43;;;3.20;;
21647;SDS011;10985;54.182;7.890;2023-05-16T05:08:20;20.00;;;4.05;;
21647;SDS011;10985;54.182;7.890;2023-05-16T05:10:46;15.18;;;3.38;;
21647;SDS011;10985;54.182;7.890;2023-05-16T05:13:11;20.23;;;3.95;;
21647;SDS011;10985;54.182;7.890;2023-05-16T05:15:37;24.23;;;4.03;;
21647;SDS011;10985;54.182;7.890;2023-05-16T05:18:02;16.27;;;3.45;;
21647;SDS011;10985;54.182;7.890;2023-05-16T05:20:28;18.33;;;3.72;;
21647;SDS011;10985;54.182;7.890;2023-05-16T05:22:53;16.23;;;3.97;;
21647;SDS011;10985;54.182;7.890;2023-05-16T05:25:19;16.35;;;3.63;;
21647;SDS011;10985;54.182;7.890;2023-05-16T05:27:44;15.43;;;3.35;;
21647;SDS011;10985;54.182;7.890;2023-05-16T05:30:10;17.55;;;3.40;;
21647;SDS011;10985;54.182;7.890;2023-05-16T05:32:36;13.90;;;3.85;;
21647;SDS011;10985;54.182;7.890;2023-05-16T05:35:01;24.50;;;3.80;;
21647;SDS011;10985;54.182;7.890;2023-05-16T05:37:27;10.90;;;3.42;;
21647;SDS011;10985;54.182;7.890;2023-05-16T05:39:54;20.90;;;4.38;;
21647;SDS011;10985;54.182;7.890;2023-05-16T05:42:19;15.32;;;3.65;;
21647;SDS011;10985;54.182;7.890;2023-05-16T05:44:45;13.77;;;3.58;;
21647;SDS011;10985;54.182;7.890;2023-05-16T05:47:11;25.83;;;3.97;;
21647;SDS011;10985;54.182;7.890;2023-05-16T05:49:37;10.60;;;3.13;;
21647;SDS011;10985;54.182;7.890;2023-05-16T05:52:02;16.55;;;3.42;;
21647;SDS011;10985;54.182;7.890;2023-05-16T05:54:28;17.73;;;3.78;;
21647;SDS011;10985;54.182;7.890;2023-05-16T05:56:54;14.50;;;3.88;;
21647;SDS011;10985;54.182;7.890;2023-05-16T05:59:21;13.75;;;3.33;;
21647;SDS011;10985;54.182;7.890;2023-05-16T06:01:46;20.30;;;3.20;;
21647;SDS011;10985;54.182;7.890;2023-05-16T06:04:16;13.45;;;3.10;;
21647;SDS011;10985;54.182;7.890;2023-05-16T06:06:42;19.90;;;3.90;;
21647;SDS011;10985;54.182;7.890;2023-05-16T06:09:08;17.75;;;3.80;;
21647;SDS011;10985;54.182;7.890;2023-05-16T06:11:33;14.27;;;3.42;;
21647;SDS011;10985;54.182;7.890;2023-05-16T06:13:59;13.23;;;3.20;;
21647;SDS011;10985;54.182;7.890;2023-05-16T06:16:24;28.38;;;4.03;;
21647;SDS011;10985;54.182;7.890;2023-05-16T06:18:50;15.63;;;3.53;;
21647;SDS011;10985;54.182;7.890;2023-05-16T06:21:15;17.25;;;3.70;;
21647;SDS011;10985;54.182;7.890;2023-05-16T06:23:41;21.95;;;3.88;;
21647;SDS011;10985;54.182;7.890;2023-05-16T06:26:06;16.33;;;3.92;;
21647;SDS011;10985;54.182;7.890;2023-05-16T06:28:32;21.60;;;3.78;;
21647;SDS011;10985;54.182;7.890;2023-05-16T06:30:58;15.82;;;3.58;;
21647;SDS011;10985;54.182;7.890;2023-05-16T06:33:23;14.23;;;3.15;;
21647;SDS011;10985;54.182;7.890;2023-05-16T06:35:49;17.85;;;3.70;;
21647;SDS011;10985;54.182;7.890;2023-05-16T06:38:16;17.50;;;4.63;;
21647;SDS011;10985;54.182;7.890;2023-05-16T06:40:43;17.48;;;3.95;;
21647;SDS011;10985;54.182;7.890;2023-05-16T06:43:08;16.05;;;3.63;;
21647;SDS011;10985;54.182;7.890;2023-05-16T06:45:35;18.27;;;3.90;;
21647;SDS011;10985;54.182;7.890;2023-05-16T06:48:01;22.50;;;3.45;;
21647;SDS011;10985;54.182;7.890;2023-05-16T06:50:27;23.52;;;4.47;;
21647;SDS011;10985;54.182;7.890;2023-05-16T06:52:52;17.52;;;3.92;;
21647;SDS011;10985;54.182;7.890;2023-05-16T06:55:18;20.10;;;3.60;;
21647;SDS011;10985;54.182;7.890;2023-05-16T06:57:43;19.38;;;3.53;;
21647;SDS011;10985;54.182;7.890;2023-05-16T07:00:09;16.92;;;3.85;;
21647;SDS011;10985;54.182;7.890;2023-05-16T07:02:36;9.85;;;3.53;;
21647;SDS011;10985;54.182;7.890;2023-05-16T07:05:01;17.10;;;3.50;;
21647;SDS011;10985;54.182;7.890;2023-05-16T07:07:27;20.30;;;3.67;;
21647;SDS011;10985;54.182;7.890;2023-05-16T07:09:53;15.10;;;3.97;;
21647;SDS011;10985;54.182;7.890;2023-05-16T07:12:18;13.68;;;3.70;;
21647;SDS011;10985;54.182;7.890;2023-05-16T07:14:44;16.10;;;3.60;;
21647;SDS011;10985;54.182;7.890;2023-05-16T07:17:10;17.33;;;4.03;;
21647;SDS011;10985;54.182;7.890;2023-05-16T07:19:36;14.30;;;3.55;;
21647;SDS011;10985;54.182;7.890;2023-05-16T07:22:01;16.63;;;3.65;;
21647;SDS011;10985;54.182;7.890;2023-05-16T07:24:27;16.95;;;3.33;;
21647;SDS011;10985;54.182;7.890;2023-05-16T07:26:53;16.00;;;3.65;;
21647;SDS011;10985;54.182;7.890;2023-05-16T07:29:18;18.98;;;3.63;;
21647;SDS011;10985;54.182;7.890;2023-05-16T07:31:43;16.25;;;3.97;;
21647;SDS011;10985;54.182;7.890;2023-05-16T07:34:09;26.48;;;4.55;;
21647;SDS011;10985;54.182;7.890;2023-05-16T07:36:36;17.65;;;3.60;;
21647;SDS011;10985;54.182;7.890;2023-05-16T07:39:01;17.08;;;3.33;;
21647;SDS011;10985;54.182;7.890;2023-05-16T07:41:28;21.95;;;4.00;;
21647;SDS011;10985;54.182;7.890;2023-05-16T07:43:53;16.67;;;3.55;;
21647;SDS011;10985;54.182;7.890;2023-05-16T07:46:19;17.40;;;3.65;;
21647;SDS011;10985;54.182;7.890;2023-05-16T07:48:44;17.75;;;3.90;;
21647;SDS011;10985;54.182;7.890;2023-05-16T07:51:10;14.52;;;3.72;;
21647;SDS011;10985;54.182;7.890;2023-05-16T07:53:36;18.67;;;3.97;;
21647;SDS011;10985;54.182;7.890;2023-05-16T07:56:01;23.63;;;4.05;;
21647;SDS011;10985;54.182;7.890;2023-05-16T07:58:27;19.92;;;4.50;;
21647;SDS011;10985;54.182;7.890;2023-05-16T08:00:52;25.33;;;3.92;;
21647;SDS011;10985;54.182;7.890;2023-05-16T08:03:18;20.42;;;3.70;;
21647;SDS011;10985;54.182;7.890;2023-05-16T08:05:44;17.77;;;3.47;;
21647;SDS011;10985;54.182;7.890;2023-05-16T08:08:09;23.73;;;4.53;;
21647;SDS011;10985;54.182;7.890;2023-05-16T08:10:35;21.83;;;3.90;;
21647;SDS011;10985;54.182;7.890;2023-05-16T08:13:00;21.05;;;4.22;;
21647;SDS011;10985;54.182;7.890;2023-05-16T08:15:26;16.77;;;3.65;;
21647;SDS011;10985;54.182;7.890;2023-05-16T08:17:53;18.75;;;3.78;;
21647;SDS011;10985;54.182;7.890;2023-05-16T08:20:21;19.80;;;3.85;;
21647;SDS011;10985;54.182;7.890;2023-05-16T08:22:46;15.32;;;3.67;;
21647;SDS011;10985;54.182;7.890;2023-05-16T08:25:12;24.45;;;4.30;;
21647;SDS011;10985;54.182;7.890;2023-05-16T08:27:37;25.63;;;4.43;;
21647;SDS011;10985;54.182;7.890;2023-05-16T08:30:03;24.45;;;4.50;;
21647;SDS011;10985;54.182;7.890;2023-05-16T08:32:29;29.52;;;4.75;;
21647;SDS011;10985;54.182;7.890;2023-05-16T08:34:55;23.55;;;4.43;;
21647;SDS011;10985;54.182;7.890;2023-05-16T08:37:20;21.92;;;4.07;;
21647;SDS011;10985;54.182;7.890;2023-05-16T08:39:46;27.88;;;4.70;;
21647;SDS011;10985;54.182;7.890;2023-05-16T08:42:11;18.02;;;4.03;;
21647;SDS011;10985;54.182;7.890;2023-05-16T08:44:37;24.15;;;4.78;;
21647;SDS011;10985;54.182;7.890;2023-05-16T08:47:11;23.40;;;3.97;;
21647;SDS011;10985;54.182;7.890;2023-05-16T08:49:40;19.52;;;3.70;;
21647;SDS011;10985;54.182;7.890;2023-05-16T08:52:08;18.70;;;4.07;;
21647;SDS011;10985;54.182;7.890;2023-05-16T08:54:35;15.93;;;3.80;;
21647;SDS011;10985;54.182;7.890;2023-05-16T08:57:01;20.60;;;4.20;;
21647;SDS011;10985;54.182;7.890;2023-05-16T08:59:27;17.42;;;3.70;;
21647;SDS011;10985;54.182;7.890;2023-05-16T09:01:54;16.88;;;3.83;;
21647;SDS011;10985;54.182;7.890;2023-05-16T09:04:19;25.40;;;5.28;;
21647;SDS011;10985;54.182;7.890;2023-05-16T09:06:45;21.45;;;4.40;;
21647;SDS011;10985;54.182;7.890;2023-05-16T09:09:12;21.17;;;4.05;;
21647;SDS011;10985;54.182;7.890;2023-05-16T09:11:38;17.67;;;3.80;;
21647;SDS011;10985;54.182;7.890;2023-05-16T09:14:03;25.20;;;4.50;;
21647;SDS011;10985;54.182;7.890;2023-05-16T09:16:32;15.20;;;3.30;;
21647;SDS011;10985;54.182;7.890;2023-05-16T09:18:58;14.88;;;3.30;;
21647;SDS011;10985;54.182;7.890;2023-05-16T09:21:26;15.90;;;4.00;;
21647;SDS011;10985;54.182;7.890;2023-05-16T09:23:54;16.70;;;3.78;;
21647;SDS011;10985;54.182;7.890;2023-05-16T09:26:19;18.70;;;3.60;;
21647;SDS011;10985;54.182;7.890;2023-05-16T09:28:46;16.15;;;3.92;;
21647;SDS011;10985;54.182;7.890;2023-05-16T09:31:18;15.20;;;3.47;;
21647;SDS011;10985;54.182;7.890;2023-05-16T09:33:57;19.75;;;3.47;;
21647;SDS011;10985;54.182;7.890;2023-05-16T09:36:22;15.90;;;3.40;;
21647;SDS011;10985;54.182;7.890;2023-05-16T09:38:52;12.10;;;2.63;;
21647;SDS011;10985;54.182;7.890;2023-05-16T09:41:20;11.23;;;2.50;;
21647;SDS011;10985;54.182;7.890;2023-05-16T09:43:45;11.77;;;2.53;;
21647;SDS011;10985;54.182;7.890;2023-05-16T09:46:12;12.85;;;2.97;;
21647;SDS011;10985;54.182;7.890;2023-05-16T09:48:45;25.42;;;4.28;;
21647;SDS011;10985;54.182;7.890;2023-05-16T09:51:12;18.65;;;3.10;;
21647;SDS011;10985;54.182;7.890;2023-05-16T09:53:38;16.00;;;2.45;;
21647;SDS011;10985;54.182;7.890;2023-05-16T09:56:06;7.45;;;2.22;;
21647;SDS011;10985;54.182;7.890;2023-05-16T09:58:36;6.00;;;1.55;;
21647;SDS011;10985;54.182;7.890;2023-05-16T10:01:03;9.98;;;2.47;;
21647;SDS011;10985;54.182;7.890;2023-05-16T10:03:32;16.25;;;3.83;;
21647;SDS011;10985;54.182;7.890;2023-05-16T10:05:59;18.40;;;3.55;;
21647;SDS011;10985;54.182;7.890;2023-05-16T10:08:25;13.60;;;3.10;;
21647;SDS011;10985;54.182;7.890;2023-05-16T10:10:52;12.85;;;2.60;;
21647;SDS011;10985;54.182;7.890;2023-05-16T10:13:23;12.35;;;2.42;;
21647;SDS011;10985;54.182;7.890;2023-05-16T10:15:54;11.75;;;3.33;;
21647;SDS011;10985;54.182;7.890;2023-05-16T10:18:20;15.82;;;3.05;;
21647;SDS011;10985;54.182;7.890;2023-05-16T10:20:47;20.92;;;3.15;;
21647;SDS011;10985;54.182;7.890;2023-05-16T10:23:17;13.02;;;3.30;;
21647;SDS011;10985;54.182;7.890;2023-05-16T10:25:44;14.85;;;3.10;;
21647;SDS011;10985;54.182;7.890;2023-05-16T10:28:11;20.15;;;4.03;;
21647;SDS011;10985;54.182;7.890;2023-05-16T10:30:39;19.27;;;3.25;;
21647;SDS011;10985;54.182;7.890;2023-05-16T10:33:07;13.50;;;3.80;;
21647;SDS011;10985;54.182;7.890;2023-05-16T10:35:35;17.15;;;3.85;;
21647;SDS011;10985;54.182;7.890;2023-05-16T10:38:02;20.30;;;4.32;;
21647;SDS011;10985;54.182;7.890;2023-05-16T10:40:28;14.07;;;3.38;;
21647;SDS011;10985;54.182;7.890;2023-05-16T10:45:20;18.55;;;4.07;;
21647;SDS011;10985;54.182;7.890;2023-05-16T10:50:30;19.30;;;3.83;;
21647;SDS011;10985;54.182;7.890;2023-05-16T11:06:21;19.92;;;4.18;;
21647;SDS011;10985;54.182;7.890;2023-05-16T11:09:02;18.75;;;4.03;;
21647;SDS011;10985;54.182;7.890;2023-05-16T11:14:25;28.85;;;4.53;;
21647;SDS011;10985;54.182;7.890;2023-05-16T11:19:39;29.77;;;4.80;;
21647;SDS011;10985;54.182;7.890;2023-05-16T11:24:58;25.60;;;4.80;;
21647;SDS011;10985;54.182;7.890;2023-05-16T11:27:30;21.33;;;4.60;;
21647;SDS011;10985;54.182;7.890;2023-05-16T11:32:28;19.08;;;4.03;;
21647;SDS011;10985;54.182;7.890;2023-05-16T11:34:55;16.77;;;3.55;;
21647;SDS011;10985;54.182;7.890;2023-05-16T11:37:22;15.68;;;3.80;;
21647;SDS011;10985;54.182;7.890;2023-05-16T11:39:48;16.30;;;3.33;;
21647;SDS011;10985;54.182;7.890;2023-05-16T11:42:13;14.75;;;3.20;;
21647;SDS011;10985;54.182;7.890;2023-05-16T11:44:39;18.33;;;3.88;;
21647;SDS011;10985;54.182;7.890;2023-05-16T11:47:05;15.32;;;3.72;;
21647;SDS011;10985;54.182;7.890;2023-05-16T11:49:31;21.58;;;4.03;;
21647;SDS011;10985;54.182;7.890;2023-05-16T11:51:59;15.50;;;3.60;;
21647;SDS011;10985;54.182;7.890;2023-05-16T11:54:25;20.45;;;3.88;;
21647;SDS011;10985;54.182;7.890;2023-05-16T11:56:50;15.57;;;3.60;;
21647;SDS011;10985;54.182;7.890;2023-05-16T11:59:16;20.52;;;3.53;;
21647;SDS011;10985;54.182;7.890;2023-05-16T12:01:43;21.55;;;4.03;;
21647;SDS011;10985;54.182;7.890;2023-05-16T12:04:12;20.27;;;3.67;;
21647;SDS011;10985;54.182;7.890;2023-05-16T12:06:38;22.77;;;4.10;;
21647;SDS011;10985;54.182;7.890;2023-05-16T12:09:10;25.77;;;4.22;;
21647;SDS011;10985;54.182;7.890;2023-05-16T12:11:39;12.35;;;3.22;;
21647;SDS011;10985;54.182;7.890;2023-05-16T12:14:06;15.55;;;3.20;;
21647;SDS011;10985;54.182;7.890;2023-05-16T12:16:34;18.08;;;3.80;;
21647;SDS011;10985;54.182;7.890;2023-05-16T12:19:01;22.05;;;4.03;;
21647;SDS011;10985;54.182;7.890;2023-05-16T12:21:28;20.50;;;3.88;;
21647;SDS011;10985;54.182;7.890;2023-05-16T12:23:55;16.63;;;3.38;;
21647;SDS011;10985;54.182;7.890;2023-05-16T12:26:26;17.98;;;3.85;;
21647;SDS011;10985;54.182;7.890;2023-05-16T12:28:58;20.17;;;4.28;;
21647;SDS011;10985;54.182;7.890;2023-05-16T12:31:27;19.08;;;4.38;;
21647;SDS011;10985;54.182;7.890;2023-05-16T12:33:54;17.30;;;3.50;;
21647;SDS011;10985;54.182;7.890;2023-05-16T12:36:20;13.15;;;3.55;;
21647;SDS011;10985;54.182;7.890;2023-05-16T12:38:47;19.08;;;4.00;;
21647;SDS011;10985;54.182;7.890;2023-05-16T12:41:17;17.83;;;4.35;;
21647;SDS011;10985;54.182;7.890;2023-05-16T12:43:47;14.82;;;3.60;;
21647;SDS011;10985;54.182;7.890;2023-05-16T12:46:12;17.77;;;4.18;;
21647;SDS011;10985;54.182;7.890;2023-05-16T12:48:38;16.10;;;3.90;;
21647;SDS011;10985;54.182;7.890;2023-05-16T12:51:16;14.75;;;3.45;;
21647;SDS011;10985;54.182;7.890;2023-05-16T12:53:46;20.35;;;3.70;;
21647;SDS011;10985;54.182;7.890;2023-05-16T12:56:13;27.92;;;4.78;;
21647;SDS011;10985;54.182;7.890;2023-05-16T12:58:40;17.63;;;3.60;;
21647;SDS011;10985;54.182;7.890;2023-05-16T13:01:06;31.17;;;5.72;;
21647;SDS011;10985;54.182;7.890;2023-05-16T13:03:32;27.33;;;5.10;;
21647;SDS011;10985;54.182;7.890;2023-05-16T13:05:58;22.40;;;4.70;;
21647;SDS011;10985;54.182;7.890;2023-05-16T13:08:25;13.48;;;3.90;;
21647;SDS011;10985;54.182;7.890;2023-05-16T13:10:51;16.63;;;3.35;;
21647;SDS011;10985;54.182;7.890;2023-05-16T13:13:16;23.70;;;4.50;;
21647;SDS011;10985;54.182;7.890;2023-05-16T13:15:45;18.58;;;4.95;;
21647;SDS011;10985;54.182;7.890;2023-05-16T13:18:11;21.30;;;4.47;;
21647;SDS011;10985;54.182;7.890;2023-05-16T13:20:37;24.80;;;4.20;;
21647;SDS011;10985;54.182;7.890;2023-05-16T13:23:03;16.75;;;4.20;;
21647;SDS011;10985;54.182;7.890;2023-05-16T13:25:29;20.00;;;4.55;;
21647;SDS011;10985;54.182;7.890;2023-05-16T13:27:55;18.85;;;3.97;;
21647;SDS011;10985;54.182;7.890;2023-05-16T13:30:21;15.60;;;4.80;;
21647;SDS011;10985;54.182;7.890;2023-05-16T13:32:46;23.17;;;4.90;;
21647;SDS011;10985;54.182;7.890;2023-05-16T13:35:12;30.98;;;5.35;;
21647;SDS011;10985;54.182;7.890;2023-05-16T13:37:38;20.63;;;5.20;;
21647;SDS011;10985;54.182;7.890;2023-05-16T13:40:05;17.52;;;4.60;;
21647;SDS011;10985;54.182;7.890;2023-05-16T13:42:34;17.50;;;4.50;;
21647;SDS011;10985;54.182;7.890;2023-05-16T13:45:00;14.10;;;4.00;;
21647;SDS011;10985;54.182;7.890;2023-05-16T13:47:27;14.02;;;3.80;;
21647;SDS011;10985;54.182;7.890;2023-05-16T13:49:52;13.40;;;4.10;;
21647;SDS011;10985;54.182;7.890;2023-05-16T13:52:17;13.07;;;3.45;;
21647;SDS011;10985;54.182;7.890;2023-05-16T13:54:43;20.02;;;4.50;;
21647;SDS011;10985;54.182;7.890;2023-05-16T13:57:08;22.75;;;5.00;;
21647;SDS011;10985;54.182;7.890;2023-05-16T13:59:34;22.20;;;4.93;;
21647;SDS011;10985;54.182;7.890;2023-05-16T14:02:00;32.40;;;6.00;;
21647;SDS011;10985;54.182;7.890;2023-05-16T14:04:25;26.13;;;5.30;;
21647;SDS011;10985;54.182;7.890;2023-05-16T14:06:51;22.40;;;4.60;;
21647;SDS011;10985;54.182;7.890;2023-05-16T14:09:16;22.60;;;5.13;;
21647;SDS011;10985;54.182;7.890;2023-05-16T14:11:42;25.50;;;4.88;;
21647;SDS011;10985;54.182;7.890;2023-05-16T14:14:08;27.48;;;5.40;;
21647;SDS011;10985;54.182;7.890;2023-05-16T14:16:33;29.67;;;5.53;;
21647;SDS011;10985;54.182;7.890;2023-05-16T14:18:59;32.20;;;6.78;;
21647;SDS011;10985;54.182;7.890;2023-05-16T14:21:24;29.30;;;5.47;;
21647;SDS011;10985;54.182;7.890;2023-05-16T14:23:50;26.88;;;5.55;;
21647;SDS011;10985;54.182;7.890;2023-05-16T14:26:16;22.05;;;6.05;;
21647;SDS011;10985;54.182;7.890;2023-05-16T14:28:46;37.72;;;6.80;;
21647;SDS011;10985;54.182;7.890;2023-05-16T14:31:12;26.17;;;5.65;;
21647;SDS011;10985;54.182;7.890;2023-05-16T14:33:37;26.10;;;5.70;;
21647;SDS011;10985;54.182;7.890;2023-05-16T14:36:05;31.35;;;5.97;;
21647;SDS011;10985;54.182;7.890;2023-05-16T14:38:31;22.50;;;5.93;;
21647;SDS011;10985;54.182;7.890;2023-05-16T14:40:56;27.67;;;6.22;;
21647;SDS011;10985;54.182;7.890;2023-05-16T14:43:22;28.13;;;5.38;;
21647;SDS011;10985;54.182;7.890;2023-05-16T14:45:47;23.65;;;5.97;;
21647;SDS011;10985;54.182;7.890;2023-05-16T14:48:13;26.05;;;6.00;;
21647;SDS011;10985;54.182;7.890;2023-05-16T14:50:38;28.27;;;6.47;;
21647;SDS011;10985;54.182;7.890;2023-05-16T14:53:04;31.70;;;5.60;;
21647;SDS011;10985;54.182;7.890;2023-05-16T14:55:29;28.70;;;6.68;;
21647;SDS011;10985;54.182;7.890;2023-05-16T14:57:55;26.52;;;5.88;;
21647;SDS011;10985;54.182;7.890;2023-05-16T15:00:22;29.85;;;5.80;;
21647;SDS011;10985;54.182;7.890;2023-05-16T15:02:48;18.73;;;4.72;;
21647;SDS011;10985;54.182;7.890;2023-05-16T15:05:14;17.98;;;5.35;;
21647;SDS011;10985;54.182;7.890;2023-05-16T15:07:40;26.33;;;6.45;;
21647;SDS011;10985;54.182;7.890;2023-05-16T15:10:06;28.52;;;5.43;;
21647;SDS011;10985;54.182;7.890;2023-05-16T15:12:31;23.67;;;5.35;;
21647;SDS011;10985;54.182;7.890;2023-05-16T15:14:57;28.35;;;6.18;;
21647;SDS011;10985;54.182;7.890;2023-05-16T15:17:22;33.15;;;6.47;;